Quick Links (Output Below):   Max & Min Temps   /   Climate Reports   /   Zone Forecasts
River Forecasts   /   Forestry Forecasts   /   Aviation Forecasts   /   Radars   /   Features

Terminal Aerodrome Forecast (Little Rock)

Pick a Site:
Arkadelphia | El Dorado | Fayetteville | Fort Smith | Harrison | Highfill | Hot Springs | Jonesboro
Little Rock | Monticello | Mountain Home | Pine Bluff | Texarkana
 Forecast 

KLIT 290520Z 2906/3006 10008KT P6SM SCT025
      TEMPO 2911/2915 BKN025
     FM291500 18010G18KT P6SM SCT030 BKN250
     FM300100 VRB06KT P6SM VCSH BKN040=


 Latest METARs (Observations) 
How to Decode METARs
05Z KLIT 290453Z 10006KT 10SM CLR 05/01 A3028 RMK AO2 SLP256
         T00500011
         
04Z KLIT 290353Z 09008KT 10SM CLR 05/01 A3028 RMK AO2 SLP258
         T00500011
         
03Z KLIT 290253Z 09010KT 10SM CLR 06/01 A3029 RMK AO2 SLP260 T00560006
         51014
         
02Z KLIT 290153Z 08009KT 10SM FEW250 06/00 A3028 RMK AO2 SLP256
         T00610000
         
01Z KLIT 290053Z 08010KT 10SM FEW250 07/00 A3026 RMK AO2 SLP250
         T00670000
         
00Z KLIT 282353Z 09010KT 10SM FEW250 08/M01 A3025 RMK AO2 SLP246
         T00831011 10106 20078 53008
         
***** Today's Observations (Above) *****


23Z KLIT 282253Z 09011KT 10SM FEW040 SCT250 09/M01 A3024 RMK AO2
         SLP243 T00941011
         
22Z KLIT 282153Z 09011KT 10SM FEW035 SCT120 SCT250 10/00 A3023 RMK AO2
         SLP239 T01000000
         
21Z KLIT 282053Z 10013KT 10SM FEW030 SCT120 SCT250 10/00 A3022 RMK AO2
         SLP237 T01000000 56016
         
20Z KLIT 281953Z 10011G19KT 10SM FEW020 SCT120 SCT250 10/01 A3024 RMK
         AO2 SLP242 T01000006
         
***** Yesterday's Observations (Above) *****


Back to Main Page
http://www.srh.noaa.gov/lzk/qfcst.php

USA.gov is the U.S. government's official web portal to all federal, state and local government web resources and services.